Time;durP1;ratioP1;P1;durP2;ratioP2;P2;SDS_P1;SDS_P2;PMS_P1;PMS_P2;Temp;Humidity;BMP_temperature;BMP_pressure;BME280_temperature;BME280_humidity;BME280_pressure;Samples;Min_cycle;Max_cycle;Signal;HPM_P1;HPM_P2
2022/11/14 00:00:08;;;;;;;1.70;1.60;;;17.80;71.70;;;;;;5014198;28;20044;-18
2022/11/14 00:02:34;;;;;;;3.53;1.92;;;17.80;71.70;;;;;;5000216;28;20499;-13
2022/11/14 00:05:00;;;;;;;1.80;1.70;;;17.80;71.80;;;;;;4993112;28;20080;-13
2022/11/14 00:07:29;;;;;;;1.90;1.80;;;17.80;71.90;;;;;;4995500;28;20073;-12
2022/11/14 00:09:54;;;;;;;1.80;1.70;;;17.70;71.80;;;;;;4991634;28;20072;-13
2022/11/14 00:12:20;;;;;;;2.28;2.17;;;17.70;71.90;;;;;;4989826;28;20508;-13
2022/11/14 00:14:45;;;;;;;2.00;1.90;;;17.70;71.90;;;;;;4993226;28;20088;-13
2022/11/14 00:17:11;;;;;;;1.70;1.60;;;17.70;71.90;;;;;;5008859;28;20053;-18
2022/11/14 00:19:36;;;;;;;1.75;1.65;;;17.70;71.90;;;;;;4993841;28;20134;-12
2022/11/14 00:22:02;;;;;;;1.98;1.88;;;17.70;71.70;;;;;;4993503;28;20038;-21
2022/11/14 00:24:27;;;;;;;1.80;1.70;;;17.70;72.60;;;;;;4993925;28;20041;-12
2022/11/14 00:26:53;;;;;;;1.55;1.50;;;17.70;71.90;;;;;;4997460;28;20043;-12
2022/11/14 00:29:19;;;;;;;2.15;1.98;;;17.70;71.70;;;;;;4995348;28;20047;-13
2022/11/14 00:31:44;;;;;;;1.77;1.67;;;17.70;71.90;;;;;;5016448;28;20062;-16
2022/11/14 00:34:10;;;;;;;2.03;1.92;;;17.70;71.80;;;;;;5010593;28;20046;-13
2022/11/14 00:36:35;;;;;;;1.90;1.80;;;17.70;71.70;;;;;;5010418;28;20520;-13
2022/11/14 00:39:01;;;;;;;1.30;1.30;;;17.70;71.70;;;;;;5008099;28;20049;-13
2022/11/14 00:41:27;;;;;;;1.80;1.70;;;17.70;71.70;;;;;;5018086;28;20125;-12
2022/11/14 00:43:52;;;;;;;1.70;1.60;;;17.70;71.60;;;;;;4998662;28;20038;-15
2022/11/14 00:46:18;;;;;;;1.70;1.60;;;17.70;71.60;;;;;;5008381;28;20383;-14
2022/11/14 00:48:43;;;;;;;1.52;1.52;;;17.70;71.60;;;;;;5011661;28;20989;-13
2022/11/14 00:51:09;;;;;;;1.88;1.70;;;17.70;72.40;;;;;;5009915;28;20046;-13
2022/11/14 00:53:34;;;;;;;1.83;1.73;;;17.70;71.50;;;;;;5010608;28;20438;-14
2022/11/14 00:56:00;;;;;;;1.63;1.52;;;17.70;71.70;;;;;;5015568;28;20051;-13
2022/11/14 00:58:26;;;;;;;1.83;1.73;;;17.60;71.80;;;;;;5004472;28;20039;-13
2022/11/14 01:00:51;;;;;;;1.67;1.50;;;17.60;71.80;;;;;;4997917;28;20039;-13
2022/11/14 01:03:17;;;;;;;1.45;1.35;;;17.60;71.60;;;;;;5011768;28;20133;-13
2022/11/14 01:05:44;;;;;;;1.88;1.77;;;17.60;71.70;;;;;;5015661;28;20628;-16
2022/11/14 01:08:10;;;;;;;1.42;1.42;;;17.60;71.80;;;;;;5012927;28;20049;-13
2022/11/14 01:10:40;;;;;;;1.40;1.30;;;17.60;71.60;;;;;;5009221;28;20037;-13
2022/11/14 01:13:05;;;;;;;1.40;1.40;;;17.60;71.60;;;;;;5008343;28;20041;-13
2022/11/14 01:15:31;;;;;;;1.77;1.67;;;17.60;71.90;;;;;;5011227;28;20092;-13
2022/11/14 01:17:56;;;;;;;1.80;1.70;;;17.50;72.70;;;;;;5002958;28;20141;-13
2022/11/14 01:20:22;;;;;;;1.27;1.27;;;17.60;71.70;;;;;;5012483;28;20045;-13
2022/11/14 01:22:47;;;;;;;1.40;1.40;;;17.60;71.80;;;;;;5012259;28;20088;-13
2022/11/14 01:25:13;;;;;;;1.38;1.38;;;17.50;71.70;;;;;;5016463;28;20042;-12
2022/11/14 01:27:39;;;;;;;1.30;1.30;;;17.50;71.80;;;;;;5004745;28;20506;-14
2022/11/14 01:30:05;;;;;;;1.52;1.42;;;17.50;71.90;;;;;;5010554;28;20141;-12
2022/11/14 01:32:30;;;;;;;1.42;1.33;;;17.50;72.10;;;;;;5007670;28;20053;-13
2022/11/14 01:34:56;;;;;;;1.20;1.20;;;17.50;72.00;;;;;;5004406;28;20040;-13
2022/11/14 01:37:21;;;;;;;1.50;1.40;;;17.50;72.00;;;;;;5015555;28;20422;-12
2022/11/14 01:39:47;;;;;;;1.30;1.30;;;17.50;72.10;;;;;;5009672;28;20087;-12
2022/11/14 01:42:12;;;;;;;1.65;1.55;;;17.50;72.00;;;;;;5004909;28;20041;-13
2022/11/14 01:44:51;;;;;;;1.50;1.42;;;17.50;71.90;;;;;;5010220;28;20037;-13
2022/11/14 01:47:25;;;;;;;1.10;1.10;;;17.50;72.80;;;;;;5013520;28;20042;-22
2022/11/14 01:49:56;;;;;;;1.00;1.00;;;17.50;72.00;;;;;;5009003;28;20039;-13
2022/11/14 01:52:33;;;;;;;1.38;1.30;;;17.50;71.90;;;;;;5016295;28;20042;-13
2022/11/14 01:55:00;;;;;;;1.10;1.10;;;17.40;72.20;;;;;;5004518;28;20153;-13
2022/11/14 01:57:30;;;;;;;1.17;1.17;;;17.40;72.20;;;;;;5011076;28;20073;-12
2022/11/14 01:59:57;;;;;;;1.42;1.42;;;17.40;72.10;;;;;;5001775;28;20051;-14
2022/11/14 02:02:24;;;;;;;1.50;1.40;;;17.40;72.10;;;;;;5007616;28;20463;-12
2022/11/14 02:04:53;;;;;;;1.27;1.27;;;17.40;72.20;;;;;;5006389;28;20097;-13
2022/11/14 02:07:19;;;;;;;1.00;1.00;;;17.50;72.20;;;;;;4993119;28;20042;-14
2022/11/14 02:09:45;;;;;;;1.40;1.40;;;17.40;71.90;;;;;;5002907;28;20053;-13
2022/11/14 02:12:12;;;;;;;1.25;1.25;;;17.50;72.00;;;;;;5011766;28;20045;-13
2022/11/14 02:14:38;;;;;;;1.50;1.50;;;17.50;71.80;;;;;;5010738;28;20038;-12
2022/11/14 02:17:03;;;;;;;1.30;1.30;;;17.50;72.00;;;;;;5013117;28;20627;-13
2022/11/14 02:20:00;;;;;;;1.08;1.08;;;17.50;71.80;;;;;;5018153;28;20129;-13
2022/11/14 02:22:25;;;;;;;2.25;1.30;;;17.60;71.80;;;;;;5003170;28;20056;-13
2022/11/14 02:24:51;;;;;;;1.10;1.10;;;17.60;71.50;;;;;;4991384;28;20061;-13
2022/11/14 02:27:16;;;;;;;1.20;1.20;;;17.60;72.50;;;;;;4993375;28;20049;-13
2022/11/14 02:29:42;;;;;;;1.27;1.27;;;17.50;71.60;;;;;;5009088;28;20052;-14
2022/11/14 02:32:08;;;;;;;1.25;1.25;;;17.50;71.70;;;;;;5011941;28;20133;-13
2022/11/14 02:34:33;;;;;;;1.48;1.48;;;17.50;71.70;;;;;;5010747;28;20425;-13
2022/11/14 02:36:59;;;;;;;1.13;1.13;;;17.50;71.90;;;;;;4999503;28;20070;-12
2022/11/14 02:39:24;;;;;;;1.30;1.30;;;17.40;71.90;;;;;;4992124;28;20050;-13
2022/11/14 02:41:50;;;;;;;1.10;1.10;;;17.50;71.80;;;;;;4992934;28;20491;-13
2022/11/14 02:44:16;;;;;;;1.40;1.30;;;17.40;72.60;;;;;;4998852;28;20149;-13
2022/11/14 02:46:42;;;;;;;1.10;1.10;;;17.40;71.80;;;;;;4997711;28;20053;-18
2022/11/14 02:49:07;;;;;;;1.13;1.13;;;17.50;71.60;;;;;;5006431;28;20038;-12
2022/11/14 02:51:33;;;;;;;0.90;0.90;;;17.50;71.50;;;;;;4991404;28;20046;-13
2022/11/14 02:53:58;;;;;;;1.20;1.20;;;17.50;71.30;;;;;;5004897;28;20045;-20
2022/11/14 02:56:24;;;;;;;1.35;1.35;;;17.50;71.40;;;;;;5011362;28;20057;-13
2022/11/14 02:58:49;;;;;;;1.10;1.10;;;17.50;71.40;;;;;;5015079;28;20112;-12
2022/11/14 03:01:15;;;;;;;1.10;1.10;;;17.50;71.50;;;;;;5004077;28;20043;-13
2022/11/14 03:03:41;;;;;;;0.98;0.98;;;17.50;71.70;;;;;;4991912;28;20502;-13
2022/11/14 03:06:06;;;;;;;1.05;1.05;;;17.50;71.60;;;;;;5016579;28;20060;-13
2022/11/14 03:08:32;;;;;;;1.38;1.38;;;17.50;71.40;;;;;;5015540;28;20041;-17
2022/11/14 03:11:07;;;;;;;1.38;1.38;;;17.50;71.30;;;;;;5007778;28;20057;-13
2022/11/14 03:13:33;;;;;;;1.38;1.35;;;17.50;71.30;;;;;;5005412;28;20065;-13
2022/11/14 03:16:06;;;;;;;1.08;1.08;;;17.50;71.40;;;;;;5014818;28;20073;-13
2022/11/14 03:18:32;;;;;;;0.98;0.98;;;17.50;71.50;;;;;;4994030;28;20040;-13
2022/11/14 03:21:03;;;;;;;1.10;1.10;;;17.40;71.40;;;;;;4991423;28;20034;-13
2022/11/14 03:23:29;;;;;;;1.13;1.13;;;17.40;71.50;;;;;;4992186;28;20101;-13
2022/11/14 03:26:02;;;;;;;1.08;1.08;;;17.40;71.50;;;;;;4991193;28;20050;-13
2022/11/14 03:28:28;;;;;;;0.82;0.82;;;17.50;71.40;;;;;;5009943;28;20645;-12
2022/11/14 03:30:54;;;;;;;1.02;1.02;;;17.50;71.30;;;;;;4989866;28;20038;-13
2022/11/14 03:33:19;;;;;;;1.00;1.00;;;17.50;71.30;;;;;;5002735;28;20472;-13
2022/11/14 03:35:45;;;;;;;1.23;1.13;;;17.50;71.30;;;;;;5009000;28;20045;-15
2022/11/14 03:38:10;;;;;;;0.88;0.88;;;17.50;71.30;;;;;;5011467;28;20050;-12
2022/11/14 03:40:39;;;;;;;0.90;0.90;;;17.60;71.10;;;;;;5012448;28;20125;-13
2022/11/14 03:43:05;;;;;;;1.40;0.90;;;17.60;71.10;;;;;;4997509;28;20515;-17
2022/11/14 03:45:30;;;;;;;0.95;0.95;;;17.50;71.20;;;;;;4988188;28;20088;-13
2022/11/14 03:47:56;;;;;;;1.10;1.10;;;17.50;71.20;;;;;;4993831;28;20060;-12
2022/11/14 03:50:21;;;;;;;1.00;1.00;;;17.50;71.10;;;;;;4991986;28;20069;-14
2022/11/14 03:52:50;;;;;;;0.85;0.85;;;17.50;71.10;;;;;;4990659;28;20054;-13
2022/11/14 03:55:15;;;;;;;1.10;1.10;;;17.50;71.90;;;;;;4990607;28;20458;-13
2022/11/14 03:57:41;;;;;;;0.73;0.73;;;17.50;71.20;;;;;;4993902;28;20050;-13
2022/11/14 04:00:08;;;;;;;0.90;0.90;;;17.50;71.20;;;;;;5002787;28;20055;-13
2022/11/14 04:02:33;;;;;;;1.20;1.20;;;17.50;71.40;;;;;;4993377;28;20101;-12
2022/11/14 04:04:59;;;;;;;0.90;0.90;;;17.60;71.10;;;;;;4990817;28;20054;-13
2022/11/14 04:07:24;;;;;;;0.70;0.70;;;17.60;71.80;;;;;;4999732;28;20141;-13
2022/11/14 04:09:50;;;;;;;0.90;0.90;;;17.60;71.90;;;;;;4993622;28;20022;-13
2022/11/14 04:12:17;;;;;;;0.93;0.93;;;17.50;72.10;;;;;;5013674;28;20433;-16
2022/11/14 04:14:42;;;;;;;0.82;0.82;;;17.50;71.30;;;;;;5013416;28;20406;-12
2022/11/14 04:17:08;;;;;;;0.80;0.80;;;17.50;71.30;;;;;;5008196;28;20046;-17
2022/11/14 04:19:33;;;;;;;0.80;0.80;;;17.50;71.30;;;;;;4993657;28;20677;-12
2022/11/14 04:21:59;;;;;;;0.90;0.90;;;17.50;71.40;;;;;;5001594;28;20127;-13
2022/11/14 04:24:24;;;;;;;1.17;1.17;;;17.50;71.40;;;;;;5004724;28;20406;-13
2022/11/14 04:26:50;;;;;;;0.98;0.98;;;17.50;71.20;;;;;;5012011;28;20041;-13
2022/11/14 04:29:16;;;;;;;0.98;0.98;;;17.50;71.10;;;;;;5009604;28;20026;-19
2022/11/14 04:31:41;;;;;;;0.80;0.80;;;17.40;71.40;;;;;;5005936;28;21096;-13
2022/11/14 04:34:07;;;;;;;0.90;0.90;;;17.40;71.30;;;;;;5015908;28;20053;-13
2022/11/14 04:36:32;;;;;;;1.08;1.08;;;17.40;71.40;;;;;;5012988;28;20033;-12
2022/11/14 04:38:58;;;;;;;0.85;0.85;;;17.50;71.30;;;;;;5006974;28;20497;-13
2022/11/14 04:41:23;;;;;;;6.13;1.05;;;17.40;71.40;;;;;;5010467;28;20018;-16
2022/11/14 04:43:49;;;;;;;0.80;0.80;;;17.40;71.40;;;;;;5008652;28;20054;-15
2022/11/14 04:46:15;;;;;;;1.20;1.20;;;17.50;72.10;;;;;;5012242;28;20418;-13
2022/11/14 04:48:40;;;;;;;1.02;1.02;;;17.40;71.20;;;;;;4989733;28;20065;-13
2022/11/14 04:51:06;;;;;;;1.08;1.08;;;17.40;72.00;;;;;;4992181;28;20034;-13
2022/11/14 04:53:31;;;;;;;0.95;0.95;;;17.40;71.40;;;;;;4994733;28;20582;-12
2022/11/14 04:55:57;;;;;;;1.15;1.15;;;17.40;71.50;;;;;;4993319;28;20026;-13
2022/11/14 04:58:22;;;;;;;0.90;0.90;;;17.40;71.20;;;;;;4990366;28;20568;-13
2022/11/14 05:00:48;;;;;;;0.90;0.90;;;17.40;71.20;;;;;;4994456;28;20049;-19
2022/11/14 05:03:14;;;;;;;0.70;0.70;;;17.40;71.30;;;;;;4997471;28;20088;-14
2022/11/14 05:05:39;;;;;;;0.90;0.90;;;17.40;71.20;;;;;;4998258;28;20154;-13
2022/11/14 05:08:05;;;;;;;0.70;0.70;;;17.50;71.10;;;;;;5010059;28;20026;-13
2022/11/14 05:10:30;;;;;;;1.02;0.90;;;17.40;71.20;;;;;;5013794;28;20042;-13
2022/11/14 05:12:56;;;;;;;0.80;0.80;;;17.40;71.40;;;;;;4997341;28;20070;-14
2022/11/14 05:15:21;;;;;;;0.85;0.85;;;17.40;71.40;;;;;;4990158;28;20046;-12
2022/11/14 05:17:47;;;;;;;1.08;1.08;;;17.40;71.40;;;;;;5005571;28;20050;-13
2022/11/14 05:20:13;;;;;;;0.77;0.77;;;17.40;71.10;;;;;;5013161;28;20049;-12
2022/11/14 05:22:38;;;;;;;0.70;0.70;;;17.40;71.20;;;;;;5006448;28;20038;-13
2022/11/14 05:25:05;;;;;;;0.82;0.82;;;17.40;71.10;;;;;;5013021;28;20048;-13
2022/11/14 05:27:30;;;;;;;0.80;0.80;;;17.50;70.90;;;;;;5006382;28;20034;-12
2022/11/14 05:29:56;;;;;;;0.77;0.77;;;17.50;71.00;;;;;;5010793;28;20057;-13
2022/11/14 05:32:22;;;;;;;0.80;0.80;;;17.40;71.20;;;;;;5016243;28;20037;-13
2022/11/14 05:34:47;;;;;;;0.70;0.70;;;17.40;71.10;;;;;;5007180;28;20961;-13
2022/11/14 05:37:13;;;;;;;0.98;0.98;;;17.40;71.20;;;;;;5015354;28;20054;-13
2022/11/14 05:39:38;;;;;;;0.70;0.70;;;17.40;71.20;;;;;;5009652;28;20042;-13
2022/11/14 05:42:05;;;;;;;1.75;0.80;;;17.40;71.20;;;;;;5010196;28;20391;-13
2022/11/14 05:44:30;;;;;;;0.90;0.90;;;17.40;71.30;;;;;;5015449;28;20513;-13
2022/11/14 05:46:56;;;;;;;0.80;0.80;;;17.40;71.30;;;;;;5012394;28;20112;-12
2022/11/14 05:49:22;;;;;;;0.75;0.75;;;17.40;71.40;;;;;;5011539;28;20034;-13
2022/11/14 05:51:48;;;;;;;0.95;0.95;;;17.30;71.20;;;;;;5009358;28;20045;-13
2022/11/14 05:54:13;;;;;;;0.77;0.77;;;17.40;71.10;;;;;;5009032;28;20113;-13
2022/11/14 05:56:39;;;;;;;0.93;0.93;;;17.40;71.20;;;;;;5010881;28;20030;-13
2022/11/14 05:59:04;;;;;;;0.90;0.90;;;17.30;71.30;;;;;;5008494;28;20042;-13
2022/11/14 06:01:31;;;;;;;0.90;0.90;;;17.30;71.60;;;;;;5009160;28;20033;-13
2022/11/14 06:03:59;;;;;;;0.90;0.90;;;17.30;71.30;;;;;;5011308;28;20045;-15
2022/11/14 06:06:25;;;;;;;0.70;0.70;;;17.30;71.70;;;;;;5008726;28;20131;-14
2022/11/14 06:08:52;;;;;;;0.90;0.90;;;17.30;71.60;;;;;;5005351;28;21130;-13
2022/11/14 06:11:19;;;;;;;0.80;0.80;;;17.40;71.40;;;;;;5011113;28;20514;-13
2022/11/14 06:13:45;;;;;;;1.10;1.10;;;17.50;70.90;;;;;;5028805;28;20046;-13
2022/11/14 06:16:12;;;;;;;10.63;0.80;;;17.50;71.50;;;;;;5004656;28;20049;-24
2022/11/14 06:18:38;;;;;;;1.10;1.10;;;17.50;71.80;;;;;;5027476;28;20080;-13
2022/11/14 06:21:11;;;;;;;1.48;1.05;;;17.40;71.90;;;;;;5009282;28;20064;-13
2022/11/14 06:23:37;;;;;;;1.00;0.90;;;17.60;71.70;;;;;;5007289;28;20121;-13
2022/11/14 06:26:08;;;;;;;0.70;0.70;;;17.50;72.20;;;;;;5012381;28;20192;-13
2022/11/14 06:28:33;;;;;;;0.90;0.90;;;17.50;72.40;;;;;;5043250;28;20069;-13
2022/11/14 06:31:00;;;;;;;1.15;1.13;;;17.50;72.50;;;;;;5018189;28;20057;-13
2022/11/14 06:33:26;;;;;;;1.20;1.20;;;17.60;72.10;;;;;;5011771;28;20026;-16
2022/11/14 06:35:59;;;;;;;1.83;0.80;;;17.50;72.40;;;;;;5017755;28;20029;-13
2022/11/14 06:38:24;;;;;;;0.90;0.70;;;17.50;72.90;;;;;;5024803;28;20479;-13
2022/11/14 06:40:50;;;;;;;0.93;0.93;;;17.40;73.20;;;;;;4997976;28;20133;-13
2022/11/14 06:43:16;;;;;;;1.05;0.95;;;17.60;72.30;;;;;;4986694;28;20045;-12
2022/11/14 06:45:41;;;;;;;0.70;0.70;;;17.60;72.40;;;;;;4994201;28;20486;-12
2022/11/14 06:48:07;;;;;;;1.35;0.90;;;17.50;72.80;;;;;;4998074;28;20035;-21
2022/11/14 06:50:32;;;;;;;0.90;0.90;;;17.40;73.00;;;;;;5001170;28;20607;-12
2022/11/14 06:52:58;;;;;;;2.05;0.88;;;17.50;73.10;;;;;;5012594;28;20486;-12
2022/11/14 06:55:24;;;;;;;1.23;0.80;;;17.50;72.80;;;;;;5009801;28;20045;-12
2022/11/14 06:57:53;;;;;;;0.75;0.75;;;17.50;72.90;;;;;;5016480;28;20042;-13
2022/11/14 07:00:20;;;;;;;2.50;0.88;;;17.40;73.00;;;;;;5004534;28;20511;-12
2022/11/14 07:02:47;;;;;;;0.70;0.70;;;17.50;73.00;;;;;;4994669;28;20102;-12
2022/11/14 07:05:12;;;;;;;0.88;0.88;;;17.40;73.00;;;;;;4993313;28;20438;-13
2022/11/14 07:07:38;;;;;;;2.05;0.80;;;17.40;72.90;;;;;;4989033;28;20490;-15
2022/11/14 07:10:04;;;;;;;2.03;1.00;;;17.40;72.80;;;;;;4982394;28;20084;-15
2022/11/14 07:12:31;;;;;;;0.80;0.80;;;17.60;72.30;;;;;;4982524;28;20129;-14
2022/11/14 07:14:57;;;;;;;1.17;0.77;;;17.70;72.00;;;;;;4976906;28;20042;-15
2022/11/14 07:17:22;;;;;;;0.80;0.77;;;17.60;72.30;;;;;;4978040;28;20113;-14
2022/11/14 07:19:48;;;;;;;1.00;1.00;;;17.50;72.50;;;;;;4972036;28;20133;-14
2022/11/14 07:22:14;;;;;;;0.68;0.68;;;17.50;72.60;;;;;;4973494;28;20038;-15
2022/11/14 07:24:39;;;;;;;1.73;1.10;;;17.40;72.60;;;;;;4974443;28;20168;-15
2022/11/14 07:27:07;;;;;;;1.52;0.90;;;17.40;72.80;;;;;;4975125;28;20058;-15
2022/11/14 07:29:33;;;;;;;2.47;0.90;;;17.30;73.00;;;;;;4976520;28;20053;-14
2022/11/14 07:31:58;;;;;;;0.80;0.80;;;17.40;72.90;;;;;;4982703;28;20068;-18
2022/11/14 07:34:24;;;;;;;1.23;1.00;;;17.50;72.50;;;;;;4984347;28;20045;-19
2022/11/14 07:36:57;;;;;;;1.03;1.00;;;17.40;72.60;;;;;;4884619;28;10000496;-13
2022/11/14 07:39:22;;;;;;;2.15;0.98;;;17.60;72.00;;;;;;4982625;28;20248;-12
2022/11/14 07:41:48;;;;;;;1.30;1.20;;;17.60;72.20;;;;;;4980845;28;20053;-13
2022/11/14 07:44:13;;;;;;;1.10;1.10;;;17.60;72.30;;;;;;4986597;28;20407;-13
2022/11/14 07:46:39;;;;;;;1.08;1.08;;;17.40;72.40;;;;;;5005586;28;20046;-13
2022/11/14 07:49:04;;;;;;;1.73;0.80;;;17.60;72.10;;;;;;5007663;28;20054;-13
2022/11/14 07:51:30;;;;;;;0.70;0.70;;;17.60;71.60;;;;;;4995009;28;20562;-13
2022/11/14 07:53:55;;;;;;;0.80;0.80;;;17.60;71.90;;;;;;4987930;28;20073;-15
2022/11/14 07:56:21;;;;;;;0.70;0.70;;;17.50;72.20;;;;;;4993289;28;20158;-13
2022/11/14 07:58:47;;;;;;;0.75;0.75;;;17.50;72.20;;;;;;4990717;28;20534;-12
2022/11/14 08:01:12;;;;;;;0.82;0.82;;;17.60;72.30;;;;;;4988382;28;20042;-12
2022/11/14 08:03:38;;;;;;;2.15;0.80;;;17.60;71.90;;;;;;4991071;28;20180;-13
2022/11/14 08:06:09;;;;;;;0.70;0.70;;;17.60;72.10;;;;;;5008582;28;20072;-18
2022/11/14 08:08:34;;;;;;;0.90;0.90;;;17.50;72.20;;;;;;5006213;28;20161;-13
2022/11/14 08:11:00;;;;;;;0.68;0.68;;;17.50;72.10;;;;;;5008819;28;20606;-13
2022/11/14 08:13:26;;;;;;;4.63;0.90;;;17.50;72.10;;;;;;4998104;28;20054;-12
2022/11/14 08:15:52;;;;;;;0.70;0.70;;;17.50;72.00;;;;;;5012534;28;20046;-13
2022/11/14 08:18:17;;;;;;;1.85;0.82;;;17.50;72.00;;;;;;5007157;28;20438;-13
2022/11/14 08:20:43;;;;;;;1.02;0.93;;;17.60;71.60;;;;;;5011761;28;20045;-13
2022/11/14 08:23:09;;;;;;;0.80;0.80;;;17.60;71.80;;;;;;5023706;28;20066;-13
2022/11/14 08:25:34;;;;;;;0.77;0.73;;;17.50;71.80;;;;;;5012640;28;20498;-14
2022/11/14 08:28:00;;;;;;;1.10;1.10;;;17.50;71.70;;;;;;5007606;28;20065;-13
2022/11/14 08:30:25;;;;;;;0.60;0.60;;;17.50;71.80;;;;;;5003606;28;20130;-23
2022/11/14 08:32:51;;;;;;;1.35;0.88;;;17.50;72.00;;;;;;4994769;28;20149;-13
2022/11/14 08:35:17;;;;;;;1.00;0.90;;;17.50;72.00;;;;;;4995124;28;20041;-18
2022/11/14 08:37:42;;;;;;;0.88;0.88;;;17.50;72.00;;;;;;5005905;28;20115;-12
2022/11/14 08:40:08;;;;;;;0.80;0.60;;;17.40;72.00;;;;;;5001501;28;20045;-12
2022/11/14 08:42:34;;;;;;;0.90;0.90;;;17.40;72.10;;;;;;5010288;28;20045;-13
2022/11/14 08:44:59;;;;;;;0.70;0.70;;;17.40;72.20;;;;;;5007051;28;20058;-13
2022/11/14 08:47:25;;;;;;;0.70;0.70;;;17.40;72.20;;;;;;5011365;28;20052;-13
2022/11/14 08:49:50;;;;;;;0.70;0.70;;;17.40;72.20;;;;;;5018487;28;20456;-13
2022/11/14 08:52:16;;;;;;;1.00;0.95;;;17.40;72.30;;;;;;5010808;28;20045;-13
2022/11/14 08:54:42;;;;;;;0.70;0.70;;;17.30;72.10;;;;;;5007922;28;20073;-14
2022/11/14 08:57:07;;;;;;;0.70;0.70;;;17.30;72.40;;;;;;4998716;28;20419;-13
2022/11/14 08:59:33;;;;;;;0.80;0.80;;;17.30;72.30;;;;;;4997880;28;20121;-13
2022/11/14 09:01:58;;;;;;;0.77;0.77;;;17.30;72.10;;;;;;4995055;28;20050;-13
2022/11/14 09:04:24;;;;;;;0.77;0.77;;;17.30;72.20;;;;;;4994722;28;20146;-13
2022/11/14 09:06:50;;;;;;;0.65;0.60;;;17.30;72.40;;;;;;4996356;28;20393;-13
2022/11/14 09:09:16;;;;;;;1.75;0.80;;;17.30;72.40;;;;;;5007481;28;20048;-13
2022/11/14 09:11:41;;;;;;;0.85;0.85;;;17.30;72.30;;;;;;5015988;28;20049;-13
2022/11/14 09:14:08;;;;;;;0.75;0.70;;;17.30;72.10;;;;;;5011722;28;20045;-13
2022/11/14 09:16:33;;;;;;;0.93;0.93;;;17.30;72.30;;;;;;5003569;28;20053;-13
2022/11/14 09:18:59;;;;;;;0.70;0.70;;;17.30;72.10;;;;;;5017631;28;20034;-13
2022/11/14 09:21:24;;;;;;;1.73;0.65;;;17.30;72.20;;;;;;5011165;28;20123;-13
2022/11/14 09:23:50;;;;;;;0.80;0.80;;;17.30;72.10;;;;;;5012546;28;20528;-13
2022/11/14 09:26:17;;;;;;;1.02;0.82;;;17.30;72.20;;;;;;5007630;28;20046;-16
2022/11/14 09:28:42;;;;;;;0.93;0.85;;;17.30;72.10;;;;;;5014243;28;20034;-14
2022/11/14 09:31:09;;;;;;;0.75;0.75;;;17.30;72.10;;;;;;5009024;28;20042;-14
2022/11/14 09:33:35;;;;;;;0.80;0.80;;;17.30;72.80;;;;;;4998522;28;20081;-13
2022/11/14 09:36:02;;;;;;;0.90;0.90;;;17.30;72.30;;;;;;4995487;28;20063;-14
2022/11/14 09:38:28;;;;;;;0.70;0.70;;;17.20;72.40;;;;;;5015145;28;20506;-13
2022/11/14 09:41:22;;;;;;;0.77;0.70;;;17.20;72.50;;;;;;5015931;28;20081;-13
2022/11/14 09:44:08;;;;;;;0.95;0.93;;;17.20;72.30;;;;;;5007559;28;20126;-14
2022/11/14 09:46:43;;;;;;;0.73;0.70;;;17.20;72.30;;;;;;5014979;28;20054;-14
2022/11/14 09:49:31;;;;;;;0.70;0.70;;;17.20;72.30;;;;;;5002983;28;20121;-13
2022/11/14 09:52:21;;;;;;;0.82;0.77;;;17.20;72.30;;;;;;4995109;28;20074;-14
2022/11/14 09:55:16;;;;;;;0.60;0.60;;;17.20;72.40;;;;;;4995957;28;20053;-13
2022/11/14 09:57:42;;;;;;;0.90;0.90;;;17.20;72.40;;;;;;4993267;28;20062;-13
2022/11/14 10:00:19;;;;;;;0.70;0.70;;;17.20;72.60;;;;;;4994037;28;20042;-14
2022/11/14 10:03:08;;;;;;;0.60;0.60;;;17.20;72.50;;;;;;5006051;28;20056;-13
2022/11/14 10:05:58;;;;;;;0.95;0.93;;;17.20;72.50;;;;;;5008535;28;20641;-13
2022/11/14 10:08:42;;;;;;;0.80;0.80;;;17.10;72.50;;;;;;5015769;28;20049;-13
2022/11/14 10:11:12;;;;;;;0.75;0.75;;;17.20;72.60;;;;;;5011653;28;20120;-13
2022/11/14 10:14:07;;;;;;;0.80;0.80;;;17.20;73.30;;;;;;5014056;28;20060;-14
2022/11/14 10:16:41;;;;;;;1.83;0.90;;;17.20;72.50;;;;;;5025869;28;20563;-14
2022/11/14 10:19:18;;;;;;;;;;;17.30;72.10;;;;;;5017774;28;20064;-14
2022/11/14 10:21:45;;;;;;;1.00;0.63;;;17.30;72.10;;;;;;5016326;28;19926;-13
2022/11/14 10:24:11;;;;;;;1.35;0.85;;;17.40;71.80;;;;;;5011392;28;20113;-14
2022/11/14 10:26:47;;;;;;;0.75;0.73;;;17.30;71.80;;;;;;5009244;28;20156;-13
2022/11/14 10:29:35;;;;;;;0.70;0.70;;;17.30;72.10;;;;;;4998669;28;20057;-13
2022/11/14 10:32:16;;;;;;;0.68;0.60;;;17.20;72.10;;;;;;5014842;28;20050;-13
2022/11/14 10:34:50;;;;;;;0.82;0.82;;;17.20;72.30;;;;;;5009994;28;20050;-14
2022/11/14 10:37:33;;;;;;;1.50;0.70;;;17.20;73.10;;;;;;5000952;28;20087;-14
2022/11/14 10:40:23;;;;;;;1.10;1.10;;;17.30;72.10;;;;;;5008566;28;20088;-13
2022/11/14 10:42:51;;;;;;;0.80;0.80;;;17.20;72.20;;;;;;4995706;28;20125;-21
2022/11/14 10:45:27;;;;;;;0.80;0.80;;;17.30;72.10;;;;;;5009513;28;20053;-13
2022/11/14 10:48:07;;;;;;;1.17;0.90;;;17.30;71.90;;;;;;5012395;28;20515;-13
2022/11/14 10:50:51;;;;;;;0.73;0.73;;;17.30;72.10;;;;;;5008145;28;20049;-13
2022/11/14 10:53:50;;;;;;;0.77;0.70;;;17.30;71.80;;;;;;5012981;28;20049;-14
2022/11/14 10:56:16;;;;;;;2.78;0.80;;;17.30;72.10;;;;;;5026292;28;20137;-14
2022/11/14 10:58:43;;;;;;;0.77;0.77;;;17.40;71.90;;;;;;5010607;28;22720;-14
2022/11/14 11:01:36;;;;;;;0.82;0.82;;;17.50;71.60;;;;;;5017395;28;20049;-13
2022/11/14 11:04:14;;;;;;;0.80;0.80;;;17.70;70.90;;;;;;5027542;28;20469;-13
2022/11/14 11:06:40;;;;;;;1.95;0.60;;;17.60;71.20;;;;;;5009567;28;20042;-24
2022/11/14 11:12:02;;;;;;;0.80;0.80;;;17.40;71.80;;;;;;5012626;28;20099;-16
2022/11/14 11:14:27;;;;;;;1.20;1.20;;;17.50;71.80;;;;;;5007506;28;20045;-14
2022/11/14 11:17:11;;;;;;;1.25;0.80;;;17.50;71.50;;;;;;4996173;28;20050;-13
2022/11/14 11:19:37;;;;;;;0.90;0.90;;;17.40;71.70;;;;;;4991421;28;20060;-14
2022/11/14 11:22:03;;;;;;;1.15;0.90;;;17.50;71.70;;;;;;4997359;28;20057;-14
2022/11/14 11:24:33;;;;;;;1.00;0.90;;;17.50;71.70;;;;;;4993465;28;20116;-14
2022/11/14 11:27:13;;;;;;;1.20;0.60;;;17.50;71.70;;;;;;4994811;28;20096;-14
2022/11/14 11:29:39;;;;;;;1.02;0.93;;;17.50;72.40;;;;;;4994868;28;20046;-14
2022/11/14 11:32:05;;;;;;;0.80;0.80;;;17.50;71.60;;;;;;4994756;28;20045;-14
2022/11/14 11:34:31;;;;;;;1.92;1.17;;;17.60;71.60;;;;;;4992471;28;20054;-14
2022/11/14 11:37:04;;;;;;;0.90;0.90;;;17.50;71.70;;;;;;4992775;28;20038;-16
2022/11/14 11:39:32;;;;;;;0.85;0.70;;;17.50;71.70;;;;;;4995703;28;20038;-14
2022/11/14 11:42:00;;;;;;;4.13;0.93;;;17.50;71.60;;;;;;4996686;28;20035;-13
2022/11/14 11:44:43;;;;;;;1.17;1.10;;;17.50;71.70;;;;;;4994653;28;20477;-15
2022/11/14 11:47:14;;;;;;;0.73;0.73;;;17.60;71.30;;;;;;4991363;28;20054;-18
2022/11/14 11:49:50;;;;;;;0.77;0.77;;;17.60;70.80;;;;;;5003524;28;20052;-14
2022/11/14 11:52:34;;;;;;;0.70;0.70;;;17.60;71.10;;;;;;5011394;28;20125;-15
2022/11/14 11:55:41;;;;;;;0.70;0.70;;;17.60;72.10;;;;;;5013366;28;20072;-22
2022/11/14 11:58:22;;;;;;;1.98;0.75;;;17.50;71.50;;;;;;5017328;28;20088;-14
2022/11/14 12:00:56;;;;;;;0.60;0.60;;;17.50;71.80;;;;;;4995872;28;20042;-22
2022/11/14 12:03:23;;;;;;;0.68;0.65;;;17.40;71.90;;;;;;5004159;28;20564;-14
2022/11/14 12:06:03;;;;;;;0.75;0.75;;;17.50;71.70;;;;;;5013733;28;20076;-14
2022/11/14 12:08:51;;;;;;;0.90;0.73;;;17.50;71.70;;;;;;5007998;28;20046;-13
2022/11/14 12:11:18;;;;;;;1.00;0.82;;;17.60;71.30;;;;;;4999381;28;20046;-14
2022/11/14 12:13:56;;;;;;;4.22;1.00;;;17.50;71.60;;;;;;4975951;28;20054;-14
2022/11/14 12:16:31;;;;;;;0.88;0.77;;;17.50;71.90;;;;;;4993680;28;20069;-15
2022/11/14 12:19:16;;;;;;;0.85;0.70;;;17.50;71.90;;;;;;4994234;28;20038;-14
2022/11/14 12:22:17;;;;;;;0.85;0.85;;;17.50;71.90;;;;;;4997742;28;20053;-17
2022/11/14 12:25:05;;;;;;;0.80;0.80;;;17.50;71.90;;;;;;4993974;28;20058;-13
2022/11/14 12:27:59;;;;;;;1.20;0.75;;;17.50;71.70;;;;;;5013404;28;20046;-19
2022/11/14 12:30:24;;;;;;;0.60;0.60;;;17.60;71.30;;;;;;5011884;28;20050;-15
2022/11/14 12:32:56;;;;;;;1.13;0.45;;;17.70;70.90;;;;;;4995776;28;20048;-13
2022/11/14 12:35:28;;;;;;;1.35;0.70;;;17.60;71.30;;;;;;5010207;28;20116;-15
2022/11/14 12:37:54;;;;;;;2.03;0.77;;;17.80;71.00;;;;;;5014629;28;20049;-14
2022/11/14 12:40:32;;;;;;;0.77;0.68;;;17.90;71.00;;;;;;4997106;28;20046;-14
2022/11/14 12:42:58;;;;;;;1.30;0.65;;;18.00;70.80;;;;;;4989952;28;20058;-19
2022/11/14 12:45:39;;;;;;;1.27;0.70;;;17.90;70.30;;;;;;4994162;28;20141;-19
2022/11/14 12:48:26;;;;;;;0.60;0.60;;;17.70;71.00;;;;;;4996325;28;20141;-19
2022/11/14 12:50:52;;;;;;;0.70;0.70;;;17.70;71.40;;;;;;4998703;28;20120;-20
2022/11/14 12:53:35;;;;;;;2.97;1.08;;;17.70;71.50;;;;;;4997435;28;20038;-18
2022/11/14 12:56:17;;;;;;;0.52;0.52;;;17.70;71.90;;;;;;4989160;28;20081;-19
2022/11/14 12:58:46;;;;;;;0.60;0.52;;;17.60;72.80;;;;;;4996439;28;20077;-20